Time;durP1;ratioP1;P1;durP2;ratioP2;P2;SDS_P1;SDS_P2;PMS_P1;PMS_P2;Temp;Humidity;BMP_temperature;BMP_pressure;BME280_temperature;BME280_humidity;BME280_pressure;Samples;Min_cycle;Max_cycle;Signal;HPM_P1;HPM_P2
2022/07/12 05:57:06;;;;;;;3.28;2.70;;;;;;;;;;6217340;23;20078;-88
2022/07/12 05:59:32;;;;;;;2.50;2.30;;;;;;;;;;6217227;23;20013;-86
2022/07/12 06:01:57;;;;;;;4.28;3.47;;;;;;;;;;6217478;23;20079;-85
2022/07/12 06:04:23;;;;;;;2.67;2.30;;;;;;;;;;6216956;23;20036;-85
2022/07/12 06:06:48;;;;;;;3.33;2.40;;;;;;;;;;6217140;23;20000;-81
2022/07/12 06:09:14;;;;;;;4.15;2.33;;;;;;;;;;6217125;23;20000;-85
2022/07/12 06:11:39;;;;;;;3.42;2.72;;;;;;;;;;6217086;23;20009;-86
2022/07/12 06:14:04;;;;;;;5.07;3.72;;;;;;;;;;6217050;23;20041;-86
2022/07/12 09:43:30;;;;;;;6.68;3.00;;;;;;;;;;6184386;23;20439;-82
2022/07/12 09:45:55;;;;;;;4.88;2.75;;;;;;;;;;6187438;23;20008;-83
2022/07/12 09:48:22;;;;;;;5.88;2.85;;;;;;;;;;6187360;23;20088;-85
2022/07/12 09:50:49;;;;;;;5.68;2.78;;;;;;;;;;6207737;23;20008;-86
2022/07/12 09:53:21;;;;;;;4.18;2.45;;;;;;;;;;6217779;23;20000;-87
2022/07/12 09:55:49;;;;;;;9.57;2.72;;;;;;;;;;6217878;23;20079;-87
2022/07/12 09:58:25;;;;;;;3.28;2.63;;;;;;;;;;6217504;23;20007;-93
2022/07/12 10:00:52;;;;;;;3.30;2.65;;;;;;;;;;6217371;23;20005;-87
2022/07/12 10:03:22;;;;;;;5.97;3.17;;;;;;;;;;6217601;23;20439;-87
2022/07/12 10:05:50;;;;;;;5.78;2.50;;;;;;;;;;6218193;23;20004;-90
2022/07/12 10:08:17;;;;;;;2.42;2.20;;;;;;;;;;6219518;23;20000;-94
2022/07/12 10:10:43;;;;;;;5.20;2.40;;;;;;;;;;6218550;23;20011;-91
2022/07/12 10:13:09;;;;;;;4.22;2.40;;;;;;;;;;6218065;23;20324;-90
2022/07/12 10:15:35;;;;;;;3.67;2.22;;;;;;;;;;6217622;23;20051;-87
2022/07/12 10:18:02;;;;;;;3.25;2.25;;;;;;;;;;6217402;23;20005;-87
2022/07/12 10:20:28;;;;;;;4.47;2.40;;;;;;;;;;6217172;23;20040;-89
2022/07/12 10:22:55;;;;;;;4.30;2.30;;;;;;;;;;6218172;23;20005;-88
2022/07/12 10:25:34;;;;;;;3.47;2.20;;;;;;;;;;6218074;23;20007;-90
2022/07/12 10:28:01;;;;;;;3.33;2.35;;;;;;;;;;6191568;23;20408;-90
2022/07/12 10:30:27;;;;;;;5.50;2.13;;;;;;;;;;6217783;23;20055;-88
2022/07/12 10:32:57;;;;;;;4.25;2.35;;;;;;;;;;6191436;23;20008;-92
2022/07/12 10:35:28;;;;;;;7.75;2.53;;;;;;;;;;6191536;23;20009;-91
2022/07/12 10:38:12;;;;;;;2.63;2.00;;;;;;;;;;6218018;23;20007;-89
2022/07/12 10:40:39;;;;;;;2.90;2.30;;;;;;;;;;6217266;23;20420;-93
2022/07/12 10:43:04;;;;;;;3.97;2.25;;;;;;;;;;6190892;23;20000;-86
2022/07/12 10:45:40;;;;;;;1.77;1.67;;;;;;;;;;6217149;23;20015;-90
2022/07/12 10:48:08;;;;;;;2.83;1.92;;;;;;;;;;6190563;23;20057;-88
2022/07/12 10:50:43;;;;;;;4.45;2.50;;;;;;;;;;6217572;23;20028;-84
2022/07/12 10:53:29;;;;;;;3.90;2.15;;;;;;;;;;6216894;23;20001;-85
2022/07/12 10:56:04;;;;;;;4.07;2.33;;;;;;;;;;6216680;23;20075;-86
2022/07/12 10:58:31;;;;;;;2.95;2.65;;;;;;;;;;6216729;23;19996;-85
2022/07/12 11:00:58;;;;;;;3.55;2.45;;;;;;;;;;6216569;23;20092;-86
2022/07/12 11:03:29;;;;;;;2.47;2.38;;;;;;;;;;6190009;23;20074;-86
2022/07/12 11:06:03;;;;;;;7.53;3.35;;;;;;;;;;6216373;23;20031;-86
2022/07/12 11:08:29;;;;;;;6.00;2.72;;;;;;;;;;6216811;23;20059;-86
2022/07/12 11:10:56;;;;;;;3.47;2.08;;;;;;;;;;6216569;23;20009;-86
2022/07/12 11:13:23;;;;;;;2.83;2.35;;;;;;;;;;6216536;23;20000;-87
2022/07/12 11:15:59;;;;;;;3.53;2.25;;;;;;;;;;6190413;23;20419;-87
2022/07/12 11:18:32;;;;;;;5.90;2.28;;;;;;;;;;6216617;23;20001;-88
2022/07/12 11:20:59;;;;;;;3.38;2.20;;;;;;;;;;6216521;23;20420;-86
2022/07/12 11:23:28;;;;;;;5.70;2.60;;;;;;;;;;6216463;23;20004;-89
2022/07/12 11:25:58;;;;;;;2.35;2.15;;;;;;;;;;6216565;23;20000;-88
2022/07/12 11:28:24;;;;;;;3.33;2.10;;;;;;;;;;6216871;23;20001;-88
2022/07/12 11:30:51;;;;;;;3.13;2.33;;;;;;;;;;6221090;23;19996;-87
2022/07/12 11:33:17;;;;;;;2.30;1.85;;;;;;;;;;6230083;23;20009;-81
2022/07/12 11:35:46;;;;;;;7.32;2.42;;;;;;;;;;6230669;23;20024;-80
2022/07/12 11:38:12;;;;;;;3.47;2.22;;;;;;;;;;6230584;23;20023;-81
2022/07/12 11:40:38;;;;;;;2.17;1.90;;;;;;;;;;6229837;23;20087;-81
2022/07/12 11:43:04;;;;;;;2.53;1.77;;;;;;;;;;6204591;23;20035;-86
2022/07/12 11:45:33;;;;;;;2.97;2.03;;;;;;;;;;6203668;23;20016;-88
2022/07/12 11:48:03;;;;;;;2.40;2.03;;;;;;;;;;6203912;23;20196;-87
2022/07/12 12:53:36;;;;;;;3.63;2.30;;;;;;;;;;6194812;23;20509;-84
2022/07/12 12:56:05;;;;;;;3.72;2.30;;;;;;;;;;6216935;23;20023;-84
2022/07/12 12:58:31;;;;;;;3.55;2.35;;;;;;;;;;6217154;23;20330;-85
2022/07/12 13:00:57;;;;;;;5.10;2.35;;;;;;;;;;6217622;23;20047;-84
2022/07/12 13:03:24;;;;;;;5.68;2.38;;;;;;;;;;6217439;23;20024;-84
2022/07/12 13:05:49;;;;;;;3.05;1.90;;;;;;;;;;6190830;23;20075;-85
2022/07/12 13:08:15;;;;;;;3.33;2.15;;;;;;;;;;6217742;23;20000;-85
2022/07/12 13:10:43;;;;;;;2.92;2.28;;;;;;;;;;6217679;23;20404;-85
2022/07/12 13:13:09;;;;;;;2.67;2.20;;;;;;;;;;6217872;23;20004;-85
2022/07/12 13:15:35;;;;;;;3.85;2.50;;;;;;;;;;6191069;23;20001;-87
2022/07/12 13:18:01;;;;;;;3.47;2.55;;;;;;;;;;6217762;23;20371;-85
2022/07/12 13:20:28;;;;;;;2.67;2.45;;;;;;;;;;6217672;23;20047;-84
2022/07/12 13:22:54;;;;;;;4.55;2.25;;;;;;;;;;6217513;23;20005;-86
2022/07/12 13:25:19;;;;;;;6.15;2.20;;;;;;;;;;6217588;23;20027;-86
2022/07/12 13:27:46;;;;;;;3.40;2.58;;;;;;;;;;6217502;23;20388;-85
2022/07/12 13:30:13;;;;;;;2.53;2.33;;;;;;;;;;6190766;23;20031;-85
2022/07/12 13:32:39;;;;;;;3.45;2.47;;;;;;;;;;6217492;23;20063;-84
2022/07/12 13:35:06;;;;;;;2.75;2.22;;;;;;;;;;6217683;23;20005;-85
2022/07/12 13:37:32;;;;;;;3.15;2.50;;;;;;;;;;6217695;23;19996;-85
2022/07/12 13:40:10;;;;;;;4.05;2.60;;;;;;;;;;6217452;23;20001;-85
2022/07/12 13:42:46;;;;;;;4.00;2.50;;;;;;;;;;6190797;23;20004;-85
2022/07/12 13:45:24;;;;;;;3.70;2.00;;;;;;;;;;6217428;23;20003;-84
2022/07/12 13:47:51;;;;;;;4.32;2.17;;;;;;;;;;6217311;23;20004;-86
2022/07/12 13:50:22;;;;;;;3.65;2.45;;;;;;;;;;6217793;23;20076;-85
2022/07/12 13:52:47;;;;;;;3.40;2.45;;;;;;;;;;6190820;23;20008;-84
2022/07/12 13:55:15;;;;;;;2.97;2.30;;;;;;;;;;6217137;23;20039;-85
2022/07/12 13:57:41;;;;;;;2.80;2.47;;;;;;;;;;6216265;23;20413;-84
2022/07/12 14:00:10;;;;;;;4.35;2.17;;;;;;;;;;6216689;23;20001;-82
2022/07/12 14:02:36;;;;;;;3.17;2.20;;;;;;;;;;6190351;23;20011;-85
2022/07/12 14:05:03;;;;;;;3.25;2.30;;;;;;;;;;6217538;23;20005;-85
2022/07/12 14:07:29;;;;;;;2.80;2.13;;;;;;;;;;6216627;23;20063;-85
2022/07/12 14:09:54;;;;;;;2.88;2.22;;;;;;;;;;6217061;23;20000;-85
2022/07/12 14:12:20;;;;;;;2.63;2.30;;;;;;;;;;6216919;23;20011;-84
2022/07/12 14:15:14;;;;;;;2.85;2.00;;;;;;;;;;6190096;23;20092;-84
2022/07/12 14:17:43;;;;;;;3.67;2.28;;;;;;;;;;6216639;23;20005;-84
2022/07/12 14:20:13;;;;;;;2.42;1.98;;;;;;;;;;6216833;23;20009;-85
2022/07/12 14:22:39;;;;;;;4.30;2.47;;;;;;;;;;6217164;23;20055;-83
2022/07/12 14:25:07;;;;;;;4.07;2.30;;;;;;;;;;6216550;23;20008;-83
2022/07/12 14:27:33;;;;;;;12.20;2.95;;;;;;;;;;6216766;23;20059;-84
2022/07/12 14:29:59;;;;;;;2.88;2.40;;;;;;;;;;6189970;23;20347;-82
2022/07/12 14:32:24;;;;;;;3.55;2.67;;;;;;;;;;6216465;23;20000;-83
2022/07/12 14:34:50;;;;;;;3.92;2.55;;;;;;;;;;6216768;23;20008;-84
2022/07/12 14:37:15;;;;;;;3.83;2.65;;;;;;;;;;6216809;23;20004;-82
2022/07/12 14:39:41;;;;;;;4.07;2.50;;;;;;;;;;6189829;23;20442;-81
2022/07/12 14:42:07;;;;;;;4.22;2.70;;;;;;;;;;6216366;23;20515;-82
2022/07/12 14:44:32;;;;;;;3.55;2.53;;;;;;;;;;6216672;23;20011;-83
2022/07/12 14:46:58;;;;;;;2.50;2.30;;;;;;;;;;6217047;23;20071;-82
2022/07/12 14:49:24;;;;;;;3.15;2.45;;;;;;;;;;6216831;23;20073;-82
2022/07/12 14:51:49;;;;;;;4.13;2.40;;;;;;;;;;6188011;23;20490;-81
2022/07/12 14:54:15;;;;;;;4.45;2.60;;;;;;;;;;6216167;23;20062;-81
2022/07/12 14:56:41;;;;;;;2.38;2.22;;;;;;;;;;6189636;23;20030;-83
2022/07/12 14:59:06;;;;;;;2.58;2.35;;;;;;;;;;6216058;23;20467;-83
2022/07/12 15:01:32;;;;;;;2.63;2.38;;;;;;;;;;6189524;23;20067;-82
2022/07/12 15:03:57;;;;;;;3.08;2.50;;;;;;;;;;6216748;23;20008;-84
2022/07/12 15:06:26;;;;;;;2.88;2.20;;;;;;;;;;6216309;23;20367;-82
2022/07/12 15:08:52;;;;;;;4.65;2.80;;;;;;;;;;6216322;23;20271;-82
2022/07/12 15:11:18;;;;;;;4.25;2.55;;;;;;;;;;6216231;23;20027;-82
2022/07/12 15:13:43;;;;;;;3.05;2.53;;;;;;;;;;6216671;23;20004;-82
2022/07/12 15:16:09;;;;;;;3.72;2.60;;;;;;;;;;6216383;23;20005;-82
2022/07/12 15:18:35;;;;;;;3.17;2.35;;;;;;;;;;6216345;23;20005;-82
2022/07/12 15:21:01;;;;;;;3.63;2.60;;;;;;;;;;6216117;23;20055;-82
2022/07/12 15:23:27;;;;;;;4.07;2.15;;;;;;;;;;6216431;23;20048;-81
2022/07/12 15:25:54;;;;;;;2.67;2.45;;;;;;;;;;6216246;23;20005;-82
2022/07/12 15:28:21;;;;;;;2.78;2.30;;;;;;;;;;6215878;23;20083;-85
2022/07/12 15:30:46;;;;;;;2.75;2.55;;;;;;;;;;6216405;23;20005;-84
2022/07/12 15:33:12;;;;;;;2.88;2.67;;;;;;;;;;6216556;23;20005;-85
2022/07/12 15:35:37;;;;;;;2.75;2.47;;;;;;;;;;6216491;23;20000;-85
2022/07/12 15:38:03;;;;;;;2.95;2.58;;;;;;;;;;6216715;23;20001;-84
2022/07/12 15:40:28;;;;;;;5.85;2.97;;;;;;;;;;6216361;23;20427;-85
2022/07/12 15:42:54;;;;;;;5.63;2.88;;;;;;;;;;6216963;23;20036;-85
2022/07/12 15:45:19;;;;;;;2.72;2.53;;;;;;;;;;6216682;23;20320;-84
2022/07/12 15:47:45;;;;;;;3.58;2.10;;;;;;;;;;6216600;23;20005;-85
2022/07/12 15:50:10;;;;;;;3.05;2.83;;;;;;;;;;6216454;23;20032;-84
2022/07/12 15:55:20;;;;;;;2.95;2.63;;;;;;;;;;6216333;23;20028;-85
2022/07/12 15:57:46;;;;;;;3.30;2.60;;;;;;;;;;6216410;23;20000;-85
2022/07/12 16:00:12;;;;;;;3.60;2.83;;;;;;;;;;6216542;23;20001;-85
2022/07/12 16:02:37;;;;;;;3.03;2.50;;;;;;;;;;6189733;23;20012;-86
2022/07/12 16:05:03;;;;;;;3.60;2.60;;;;;;;;;;6216537;23;20000;-85
2022/07/12 16:07:29;;;;;;;3.33;2.70;;;;;;;;;;6216375;23;20087;-85
2022/07/12 16:09:55;;;;;;;3.30;2.92;;;;;;;;;;6221896;23;20001;-85
2022/07/12 16:12:20;;;;;;;3.63;2.60;;;;;;;;;;6229986;23;20000;-85
2022/07/12 16:14:46;;;;;;;3.30;2.30;;;;;;;;;;6230225;23;20005;-85
2022/07/12 16:17:13;;;;;;;4.50;2.50;;;;;;;;;;6229969;23;20320;-85
2022/07/12 16:19:39;;;;;;;2.42;2.22;;;;;;;;;;6230414;23;20004;-85
2022/07/12 16:22:05;;;;;;;3.20;2.35;;;;;;;;;;6232464;23;20004;-85
2022/07/12 16:24:30;;;;;;;4.68;2.63;;;;;;;;;;6232325;23;19999;-85
2022/07/12 16:26:56;;;;;;;2.45;2.22;;;;;;;;;;6231331;23;20083;-86
2022/07/12 16:29:21;;;;;;;2.45;2.25;;;;;;;;;;6205415;23;20003;-87
2022/07/12 16:31:50;;;;;;;2.55;2.35;;;;;;;;;;6232359;23;20035;-85
2022/07/12 16:34:15;;;;;;;3.95;2.20;;;;;;;;;;6232745;23;20420;-85
2022/07/12 16:36:42;;;;;;;4.07;2.58;;;;;;;;;;6232253;23;20007;-85
2022/07/12 16:39:09;;;;;;;2.90;2.30;;;;;;;;;;6232387;23;20007;-85
2022/07/12 16:41:34;;;;;;;5.05;4.25;;;;;;;;;;6206024;23;20012;-86
2022/07/12 16:44:00;;;;;;;5.53;2.97;;;;;;;;;;6232184;23;20026;-85
2022/07/12 16:46:25;;;;;;;3.58;3.05;;;;;;;;;;6232420;23;20007;-90
2022/07/12 16:48:51;;;;;;;3.97;3.08;;;;;;;;;;6232208;23;20004;-86
2022/07/12 16:51:22;;;;;;;4.65;4.25;;;;;;;;;;6232350;23;20035;-86
2022/07/12 16:53:56;;;;;;;7.97;4.57;;;;;;;;;;6231943;23;20004;-85
2022/07/12 16:56:23;;;;;;;2.92;2.65;;;;;;;;;;6231767;23;20008;-85
2022/07/12 16:58:50;;;;;;;7.47;5.95;;;;;;;;;;6222934;23;19996;-83
2022/07/12 17:01:16;;;;;;;8.77;7.32;;;;;;;;;;6219034;23;20313;-84
2022/07/12 17:03:41;;;;;;;10.45;7.75;;;;;;;;;;6192446;23;20450;-84
2022/07/12 17:06:07;;;;;;;3.28;2.92;;;;;;;;;;6218533;23;19997;-83
